sensor_id;sensor_type;location;lat;lon;timestamp;pressure;altitude;pressure_sealevel;temperature;humidity
45991;BME280;31721;41.740;-88.000;2022-12-07T00:01:19;99058.63;;;6.03;55.56
45991;BME280;31721;41.740;-88.000;2022-12-07T00:03:48;99078.82;;;5.97;55.94
45991;BME280;31721;41.740;-88.000;2022-12-07T00:06:17;99090.48;;;6.07;55.95
45991;BME280;31721;41.740;-88.000;2022-12-07T00:08:47;99089.60;;;6.25;55.93
45991;BME280;31721;41.740;-88.000;2022-12-07T00:11:17;99080.10;;;6.17;55.77
45991;BME280;31721;41.740;-88.000;2022-12-07T00:13:47;99069.85;;;6.06;55.62
45991;BME280;31721;41.740;-88.000;2022-12-07T00:16:16;99081.76;;;6.11;55.66
45991;BME280;31721;41.740;-88.000;2022-12-07T00:18:46;99087.61;;;5.89;55.75
45991;BME280;31721;41.740;-88.000;2022-12-07T00:21:16;99079.13;;;5.76;55.89
45991;BME280;31721;41.740;-88.000;2022-12-07T00:23:45;99069.77;;;5.77;56.14
45991;BME280;31721;41.740;-88.000;2022-12-07T00:26:14;99067.56;;;5.75;56.37
45991;BME280;31721;41.740;-88.000;2022-12-07T00:28:45;99060.76;;;5.69;56.44
45991;BME280;31721;41.740;-88.000;2022-12-07T00:31:14;99063.96;;;5.89;56.54
45991;BME280;31721;41.740;-88.000;2022-12-07T00:33:43;99064.63;;;5.85;56.53
45991;BME280;31721;41.740;-88.000;2022-12-07T00:36:13;99068.26;;;5.92;56.52
45991;BME280;31721;41.740;-88.000;2022-12-07T00:38:41;99053.50;;;5.84;56.52
45991;BME280;31721;41.740;-88.000;2022-12-07T00:41:11;99047.13;;;5.94;56.51
45991;BME280;31721;41.740;-88.000;2022-12-07T00:43:41;99057.27;;;5.99;56.53
45991;BME280;31721;41.740;-88.000;2022-12-07T00:46:11;99058.95;;;6.03;56.54
45991;BME280;31721;41.740;-88.000;2022-12-07T00:48:39;99056.08;;;6.07;56.40
45991;BME280;31721;41.740;-88.000;2022-12-07T00:51:09;99085.27;;;6.15;56.47
45991;BME280;31721;41.740;-88.000;2022-12-07T00:53:38;99112.90;;;6.01;56.08
45991;BME280;31721;41.740;-88.000;2022-12-07T00:56:06;99120.14;;;5.93;56.24
45991;BME280;31721;41.740;-88.000;2022-12-07T00:58:34;99125.56;;;5.95;56.42
45991;BME280;31721;41.740;-88.000;2022-12-07T01:01:03;99128.27;;;6.00;56.43
45991;BME280;31721;41.740;-88.000;2022-12-07T01:03:31;99115.91;;;5.97;56.56
45991;BME280;31721;41.740;-88.000;2022-12-07T01:05:59;99091.75;;;5.88;56.61
45991;BME280;31721;41.740;-88.000;2022-12-07T01:08:28;99054.39;;;5.88;56.88
45991;BME280;31721;41.740;-88.000;2022-12-07T01:11:01;99039.03;;;5.90;57.05
45991;BME280;31721;41.740;-88.000;2022-12-07T01:13:29;99070.39;;;5.85;57.04
45991;BME280;31721;41.740;-88.000;2022-12-07T01:15:59;99109.75;;;6.00;57.09
45991;BME280;31721;41.740;-88.000;2022-12-07T01:18:28;99118.55;;;6.04;56.78
45991;BME280;31721;41.740;-88.000;2022-12-07T01:21:00;99124.27;;;5.99;56.76
45991;BME280;31721;41.740;-88.000;2022-12-07T01:23:28;99130.23;;;6.02;56.70
45991;BME280;31721;41.740;-88.000;2022-12-07T01:25:57;99132.70;;;6.13;56.69
45991;BME280;31721;41.740;-88.000;2022-12-07T01:28:26;99128.43;;;6.19;56.43
45991;BME280;31721;41.740;-88.000;2022-12-07T01:30:57;99122.88;;;6.17;56.43
45991;BME280;31721;41.740;-88.000;2022-12-07T01:33:26;99117.26;;;6.19;56.27
45991;BME280;31721;41.740;-88.000;2022-12-07T01:35:54;99124.80;;;6.35;56.25
45991;BME280;31721;41.740;-88.000;2022-12-07T01:38:27;99126.42;;;6.23;56.02
45991;BME280;31721;41.740;-88.000;2022-12-07T01:40:56;99129.05;;;6.19;55.85
45991;BME280;31721;41.740;-88.000;2022-12-07T01:43:27;99132.48;;;6.21;55.81
45991;BME280;31721;41.740;-88.000;2022-12-07T01:45:55;99139.50;;;6.17;55.91
45991;BME280;31721;41.740;-88.000;2022-12-07T01:48:27;99137.40;;;6.15;55.85
45991;BME280;31721;41.740;-88.000;2022-12-07T01:51:00;99133.16;;;6.24;55.86
45991;BME280;31721;41.740;-88.000;2022-12-07T01:53:29;99139.56;;;6.24;55.85
45991;BME280;31721;41.740;-88.000;2022-12-07T01:55:59;99146.40;;;6.10;55.75
45991;BME280;31721;41.740;-88.000;2022-12-07T01:58:28;99146.20;;;6.05;55.76
45991;BME280;31721;41.740;-88.000;2022-12-07T02:00:56;99147.35;;;6.02;55.66
45991;BME280;31721;41.740;-88.000;2022-12-07T02:03:29;99146.35;;;5.94;55.59
45991;BME280;31721;41.740;-88.000;2022-12-07T02:06:00;99148.11;;;5.81;55.81
45991;BME280;31721;41.740;-88.000;2022-12-07T02:08:27;99150.33;;;5.73;56.08
45991;BME280;31721;41.740;-88.000;2022-12-07T02:10:55;99146.27;;;5.59;56.31
45991;BME280;31721;41.740;-88.000;2022-12-07T02:13:25;99146.53;;;5.51;56.40
45991;BME280;31721;41.740;-88.000;2022-12-07T02:16:21;99153.63;;;5.51;56.42
45991;BME280;31721;41.740;-88.000;2022-12-07T02:19:03;99156.29;;;5.45;56.44
45991;BME280;31721;41.740;-88.000;2022-12-07T02:21:43;99153.89;;;5.47;56.28
45991;BME280;31721;41.740;-88.000;2022-12-07T02:24:30;99145.96;;;5.62;56.24
45991;BME280;31721;41.740;-88.000;2022-12-07T02:27:39;99140.84;;;5.52;56.20
45991;BME280;31721;41.740;-88.000;2022-12-07T02:30:12;99133.07;;;5.44;56.17
45991;BME280;31721;41.740;-88.000;2022-12-07T02:32:53;99135.90;;;5.42;56.07
45991;BME280;31721;41.740;-88.000;2022-12-07T02:35:28;99128.26;;;5.38;55.89
45991;BME280;31721;41.740;-88.000;2022-12-07T02:38:04;99125.62;;;5.32;55.88
45991;BME280;31721;41.740;-88.000;2022-12-07T02:40:39;99131.86;;;5.31;55.91
45991;BME280;31721;41.740;-88.000;2022-12-07T02:43:12;99137.68;;;5.41;55.75
45991;BME280;31721;41.740;-88.000;2022-12-07T02:45:42;99139.44;;;5.22;55.71
45991;BME280;31721;41.740;-88.000;2022-12-07T02:48:13;99145.63;;;5.13;55.64
45991;BME280;31721;41.740;-88.000;2022-12-07T02:50:47;99150.33;;;5.11;55.96
45991;BME280;31721;41.740;-88.000;2022-12-07T02:53:34;99151.74;;;5.16;55.92
45991;BME280;31721;41.740;-88.000;2022-12-07T02:56:08;99150.75;;;5.12;55.62
45991;BME280;31721;41.740;-88.000;2022-12-07T02:58:49;99148.96;;;5.05;55.59
45991;BME280;31721;41.740;-88.000;2022-12-07T03:01:26;99151.52;;;4.93;55.34
45991;BME280;31721;41.740;-88.000;2022-12-07T03:04:02;99157.44;;;4.88;54.96
45991;BME280;31721;41.740;-88.000;2022-12-07T03:06:38;99161.91;;;4.76;55.14
45991;BME280;31721;41.740;-88.000;2022-12-07T03:09:13;99162.76;;;4.43;55.38
45991;BME280;31721;41.740;-88.000;2022-12-07T03:11:46;99170.84;;;3.84;56.14
45991;BME280;31721;41.740;-88.000;2022-12-07T03:14:18;99169.41;;;4.02;56.30
45991;BME280;31721;41.740;-88.000;2022-12-07T03:16:52;99163.04;;;3.90;56.38
45991;BME280;31721;41.740;-88.000;2022-12-07T03:19:24;99164.14;;;3.93;56.27
45991;BME280;31721;41.740;-88.000;2022-12-07T03:21:57;99164.61;;;3.90;56.37
45991;BME280;31721;41.740;-88.000;2022-12-07T03:24:31;99168.44;;;3.96;56.40
45991;BME280;31721;41.740;-88.000;2022-12-07T03:27:04;99164.53;;;3.89;56.41
45991;BME280;31721;41.740;-88.000;2022-12-07T03:29:38;99160.60;;;3.90;56.27
45991;BME280;31721;41.740;-88.000;2022-12-07T03:32:14;99153.97;;;3.86;56.08
45991;BME280;31721;41.740;-88.000;2022-12-07T03:34:47;99151.35;;;3.80;55.83
45991;BME280;31721;41.740;-88.000;2022-12-07T03:37:22;99153.48;;;3.89;55.55
45991;BME280;31721;41.740;-88.000;2022-12-07T03:39:59;99165.66;;;3.80;55.65
45991;BME280;31721;41.740;-88.000;2022-12-07T03:42:30;99174.70;;;3.83;55.67
45991;BME280;31721;41.740;-88.000;2022-12-07T03:44:59;99175.95;;;3.81;55.56
45991;BME280;31721;41.740;-88.000;2022-12-07T03:47:32;99177.59;;;3.78;55.61
45991;BME280;31721;41.740;-88.000;2022-12-07T03:50:04;99180.72;;;3.80;55.70
45991;BME280;31721;41.740;-88.000;2022-12-07T03:52:40;99186.61;;;3.69;55.60
45991;BME280;31721;41.740;-88.000;2022-12-07T03:55:11;99189.45;;;3.66;55.63
45991;BME280;31721;41.740;-88.000;2022-12-07T03:57:44;99193.28;;;3.52;55.64
45991;BME280;31721;41.740;-88.000;2022-12-07T04:00:14;99191.65;;;3.41;56.04
45991;BME280;31721;41.740;-88.000;2022-12-07T04:02:43;99188.45;;;3.36;56.10
45991;BME280;31721;41.740;-88.000;2022-12-07T04:05:11;99191.57;;;3.30;56.19
45991;BME280;31721;41.740;-88.000;2022-12-07T04:07:39;99202.71;;;3.03;56.16
45991;BME280;31721;41.740;-88.000;2022-12-07T04:10:09;99205.83;;;2.93;56.68
45991;BME280;31721;41.740;-88.000;2022-12-07T04:12:37;99211.04;;;2.92;56.65
45991;BME280;31721;41.740;-88.000;2022-12-07T04:15:06;99217.42;;;2.89;56.75
45991;BME280;31721;41.740;-88.000;2022-12-07T04:17:35;99218.79;;;2.89;56.80
45991;BME280;31721;41.740;-88.000;2022-12-07T04:20:04;99221.00;;;2.99;56.63
45991;BME280;31721;41.740;-88.000;2022-12-07T04:22:32;99225.07;;;3.04;56.75
45991;BME280;31721;41.740;-88.000;2022-12-07T04:25:00;99224.91;;;2.95;56.68
45991;BME280;31721;41.740;-88.000;2022-12-07T04:27:28;99227.22;;;2.84;56.73
45991;BME280;31721;41.740;-88.000;2022-12-07T04:29:56;99228.19;;;2.80;56.96
45991;BME280;31721;41.740;-88.000;2022-12-07T04:32:24;99228.12;;;2.77;56.92
45991;BME280;31721;41.740;-88.000;2022-12-07T04:34:52;99227.57;;;2.75;57.03
45991;BME280;31721;41.740;-88.000;2022-12-07T04:37:20;99228.99;;;2.73;57.20
45991;BME280;31721;41.740;-88.000;2022-12-07T04:39:48;99232.03;;;2.75;57.26
45991;BME280;31721;41.740;-88.000;2022-12-07T04:42:16;99232.49;;;2.75;56.94
45991;BME280;31721;41.740;-88.000;2022-12-07T04:44:44;99236.47;;;2.74;56.88
45991;BME280;31721;41.740;-88.000;2022-12-07T04:47:12;99244.93;;;2.63;56.79
45991;BME280;31721;41.740;-88.000;2022-12-07T04:49:41;99245.07;;;2.56;57.18
45991;BME280;31721;41.740;-88.000;2022-12-07T04:52:09;99244.17;;;2.56;57.39
45991;BME280;31721;41.740;-88.000;2022-12-07T04:54:37;99243.84;;;2.56;57.37
45991;BME280;31721;41.740;-88.000;2022-12-07T04:57:05;99246.71;;;2.71;57.31
45991;BME280;31721;41.740;-88.000;2022-12-07T04:59:34;99254.12;;;2.57;57.48
45991;BME280;31721;41.740;-88.000;2022-12-07T05:02:01;99259.29;;;2.68;57.29
45991;BME280;31721;41.740;-88.000;2022-12-07T05:04:29;99259.62;;;2.77;57.15
45991;BME280;31721;41.740;-88.000;2022-12-07T05:06:56;99268.31;;;2.65;56.84
45991;BME280;31721;41.740;-88.000;2022-12-07T05:09:24;99272.69;;;2.61;56.94
45991;BME280;31721;41.740;-88.000;2022-12-07T05:11:52;99277.15;;;2.73;56.84
45991;BME280;31721;41.740;-88.000;2022-12-07T05:14:20;99277.90;;;2.66;56.63
45991;BME280;31721;41.740;-88.000;2022-12-07T05:16:50;99275.85;;;2.60;56.56
45991;BME280;31721;41.740;-88.000;2022-12-07T05:19:18;99271.69;;;2.63;56.61
45991;BME280;31721;41.740;-88.000;2022-12-07T05:21:47;99272.58;;;2.63;56.87
45991;BME280;31721;41.740;-88.000;2022-12-07T05:24:16;99280.11;;;2.63;57.02
45991;BME280;31721;41.740;-88.000;2022-12-07T05:26:44;99281.97;;;2.63;57.10
45991;BME280;31721;41.740;-88.000;2022-12-07T05:29:13;99286.45;;;2.69;57.10
45991;BME280;31721;41.740;-88.000;2022-12-07T05:31:42;99285.73;;;2.32;57.58
45991;BME280;31721;41.740;-88.000;2022-12-07T05:34:11;99289.32;;;2.34;57.65
45991;BME280;31721;41.740;-88.000;2022-12-07T05:36:38;99290.29;;;2.34;57.65
45991;BME280;31721;41.740;-88.000;2022-12-07T05:39:06;99291.72;;;2.34;57.80
45991;BME280;31721;41.740;-88.000;2022-12-07T05:41:34;99289.18;;;2.36;57.77
45991;BME280;31721;41.740;-88.000;2022-12-07T05:44:03;99284.29;;;2.37;57.71
45991;BME280;31721;41.740;-88.000;2022-12-07T05:46:31;99286.12;;;2.41;57.87
45991;BME280;31721;41.740;-88.000;2022-12-07T05:49:00;99284.08;;;2.56;57.81
45991;BME280;31721;41.740;-88.000;2022-12-07T05:51:28;99282.69;;;2.54;57.58
45991;BME280;31721;41.740;-88.000;2022-12-07T05:53:55;99281.72;;;2.52;57.76
45991;BME280;31721;41.740;-88.000;2022-12-07T05:56:23;99276.04;;;2.51;57.98
45991;BME280;31721;41.740;-88.000;2022-12-07T05:58:51;99270.15;;;2.52;57.84
45991;BME280;31721;41.740;-88.000;2022-12-07T06:01:19;99273.88;;;2.57;57.87
45991;BME280;31721;41.740;-88.000;2022-12-07T06:03:46;99279.75;;;2.62;57.73
45991;BME280;31721;41.740;-88.000;2022-12-07T06:06:14;99285.61;;;2.69;57.26
45991;BME280;31721;41.740;-88.000;2022-12-07T06:08:42;99288.23;;;2.70;57.23
45991;BME280;31721;41.740;-88.000;2022-12-07T06:11:10;99291.27;;;2.64;57.23
45991;BME280;31721;41.740;-88.000;2022-12-07T06:13:37;99294.58;;;2.74;56.97
45991;BME280;31721;41.740;-88.000;2022-12-07T06:16:06;99293.13;;;2.64;56.95
45991;BME280;31721;41.740;-88.000;2022-12-07T06:18:34;99291.36;;;2.63;56.94
45991;BME280;31721;41.740;-88.000;2022-12-07T06:21:02;99291.36;;;2.64;56.96
45991;BME280;31721;41.740;-88.000;2022-12-07T06:23:30;99295.75;;;2.65;56.85
45991;BME280;31721;41.740;-88.000;2022-12-07T06:25:57;99297.70;;;2.63;57.03
45991;BME280;31721;41.740;-88.000;2022-12-07T06:28:25;99301.37;;;2.65;57.12
45991;BME280;31721;41.740;-88.000;2022-12-07T06:30:57;99302.41;;;2.67;57.07
45991;BME280;31721;41.740;-88.000;2022-12-07T06:33:25;99296.17;;;2.77;57.10
45991;BME280;31721;41.740;-88.000;2022-12-07T06:35:53;99297.19;;;2.67;57.13
45991;BME280;31721;41.740;-88.000;2022-12-07T06:38:22;99295.25;;;2.69;57.11
45991;BME280;31721;41.740;-88.000;2022-12-07T06:40:49;99297.32;;;2.71;57.19
45991;BME280;31721;41.740;-88.000;2022-12-07T06:43:17;99301.15;;;2.75;57.28
45991;BME280;31721;41.740;-88.000;2022-12-07T06:45:45;99299.40;;;2.87;57.58
45991;BME280;31721;41.740;-88.000;2022-12-07T06:48:13;99300.45;;;2.82;57.67
45991;BME280;31721;41.740;-88.000;2022-12-07T06:50:43;99305.06;;;2.85;57.77
45991;BME280;31721;41.740;-88.000;2022-12-07T06:53:11;99308.34;;;2.91;57.80
45991;BME280;31721;41.740;-88.000;2022-12-07T06:55:39;99308.55;;;2.97;57.88
45991;BME280;31721;41.740;-88.000;2022-12-07T06:58:07;99306.04;;;3.01;57.73
45991;BME280;31721;41.740;-88.000;2022-12-07T07:00:34;99303.06;;;3.01;57.92
45991;BME280;31721;41.740;-88.000;2022-12-07T07:03:02;99301.58;;;2.96;57.95
45991;BME280;31721;41.740;-88.000;2022-12-07T07:05:30;99299.68;;;3.04;58.31
45991;BME280;31721;41.740;-88.000;2022-12-07T07:07:57;99300.72;;;3.04;58.45
45991;BME280;31721;41.740;-88.000;2022-12-07T07:10:25;99302.71;;;3.03;58.51
45991;BME280;31721;41.740;-88.000;2022-12-07T07:12:53;99308.30;;;2.80;58.09
45991;BME280;31721;41.740;-88.000;2022-12-07T07:15:21;99315.04;;;2.80;58.19
45991;BME280;31721;41.740;-88.000;2022-12-07T07:17:49;99314.99;;;2.78;58.98
45991;BME280;31721;41.740;-88.000;2022-12-07T07:20:17;99319.38;;;2.90;59.37
45991;BME280;31721;41.740;-88.000;2022-12-07T07:22:45;99322.81;;;2.97;59.58
45991;BME280;31721;41.740;-88.000;2022-12-07T07:25:13;99322.88;;;3.05;59.69
45991;BME280;31721;41.740;-88.000;2022-12-07T07:27:41;99325.10;;;3.15;59.63
45991;BME280;31721;41.740;-88.000;2022-12-07T07:30:10;99326.24;;;3.23;59.54
45991;BME280;31721;41.740;-88.000;2022-12-07T07:32:38;99328.94;;;3.30;59.54
45991;BME280;31721;41.740;-88.000;2022-12-07T07:35:06;99337.57;;;3.30;59.41
45991;BME280;31721;41.740;-88.000;2022-12-07T07:37:34;99347.50;;;3.25;59.23
45991;BME280;31721;41.740;-88.000;2022-12-07T07:40:02;99354.08;;;3.11;59.68
45991;BME280;31721;41.740;-88.000;2022-12-07T07:42:30;99355.01;;;3.21;59.77
45991;BME280;31721;41.740;-88.000;2022-12-07T07:44:57;99357.65;;;3.37;59.89
45991;BME280;31721;41.740;-88.000;2022-12-07T07:47:25;99355.48;;;3.26;59.99
45991;BME280;31721;41.740;-88.000;2022-12-07T07:49:53;99355.46;;;3.30;60.15
45991;BME280;31721;41.740;-88.000;2022-12-07T07:52:20;99359.37;;;3.30;60.13
45991;BME280;31721;41.740;-88.000;2022-12-07T07:54:48;99363.74;;;3.46;60.29
45991;BME280;31721;41.740;-88.000;2022-12-07T07:57:16;99368.86;;;3.55;60.42
45991;BME280;31721;41.740;-88.000;2022-12-07T07:59:44;99371.20;;;3.56;60.31
45991;BME280;31721;41.740;-88.000;2022-12-07T08:02:14;99371.16;;;3.63;60.24
45991;BME280;31721;41.740;-88.000;2022-12-07T08:04:43;99370.12;;;3.62;60.31
45991;BME280;31721;41.740;-88.000;2022-12-07T08:07:12;99365.87;;;3.70;60.22
45991;BME280;31721;41.740;-88.000;2022-12-07T08:09:40;99365.63;;;3.36;60.08
45991;BME280;31721;41.740;-88.000;2022-12-07T08:12:08;99375.15;;;3.11;60.20
45991;BME280;31721;41.740;-88.000;2022-12-07T08:14:36;99381.22;;;3.31;60.79
45991;BME280;31721;41.740;-88.000;2022-12-07T08:17:04;99382.19;;;3.49;60.91
45991;BME280;31721;41.740;-88.000;2022-12-07T08:19:32;99384.20;;;3.50;61.09
45991;BME280;31721;41.740;-88.000;2022-12-07T08:21:59;99384.67;;;3.29;60.83
45991;BME280;31721;41.740;-88.000;2022-12-07T08:24:27;99385.01;;;3.53;61.29
45991;BME280;31721;41.740;-88.000;2022-12-07T08:26:55;99389.21;;;3.54;61.22
45991;BME280;31721;41.740;-88.000;2022-12-07T08:29:23;99396.26;;;3.49;61.09
45991;BME280;31721;41.740;-88.000;2022-12-07T08:31:51;99404.15;;;3.53;61.31
45991;BME280;31721;41.740;-88.000;2022-12-07T08:34:19;99412.23;;;3.65;61.32
45991;BME280;31721;41.740;-88.000;2022-12-07T08:36:46;99418.01;;;3.65;61.01
45991;BME280;31721;41.740;-88.000;2022-12-07T08:39:14;99421.72;;;3.76;61.15
45991;BME280;31721;41.740;-88.000;2022-12-07T08:41:41;99418.49;;;3.59;60.77
45991;BME280;31721;41.740;-88.000;2022-12-07T08:44:09;99412.78;;;3.69;61.26
45991;BME280;31721;41.740;-88.000;2022-12-07T08:46:39;99414.90;;;3.76;61.22
45991;BME280;31721;41.740;-88.000;2022-12-07T08:49:13;99423.36;;;3.60;61.13
45991;BME280;31721;41.740;-88.000;2022-12-07T08:51:43;99428.19;;;3.74;61.38
45991;BME280;31721;41.740;-88.000;2022-12-07T08:54:13;99431.74;;;3.82;61.34
45991;BME280;31721;41.740;-88.000;2022-12-07T08:56:41;99435.54;;;3.69;60.88
45991;BME280;31721;41.740;-88.000;2022-12-07T08:59:10;99434.43;;;3.71;61.38
45991;BME280;31721;41.740;-88.000;2022-12-07T09:01:40;99427.54;;;3.79;61.60
45991;BME280;31721;41.740;-88.000;2022-12-07T09:04:09;99424.65;;;3.86;61.53
45991;BME280;31721;41.740;-88.000;2022-12-07T09:06:36;99427.98;;;3.85;61.45
45991;BME280;31721;41.740;-88.000;2022-12-07T09:09:04;99428.23;;;3.84;61.48
45991;BME280;31721;41.740;-88.000;2022-12-07T09:11:32;99437.18;;;3.59;61.48
45991;BME280;31721;41.740;-88.000;2022-12-07T09:13:59;99436.04;;;3.74;61.59
45991;BME280;31721;41.740;-88.000;2022-12-07T09:16:27;99433.72;;;3.48;61.81
45991;BME280;31721;41.740;-88.000;2022-12-07T09:18:55;99433.09;;;3.63;61.84
45991;BME280;31721;41.740;-88.000;2022-12-07T09:21:22;99428.83;;;3.65;61.79
45991;BME280;31721;41.740;-88.000;2022-12-07T09:23:51;99430.65;;;3.67;61.92
45991;BME280;31721;41.740;-88.000;2022-12-07T09:26:18;99429.72;;;3.83;61.91
45991;BME280;31721;41.740;-88.000;2022-12-07T09:28:46;99425.16;;;3.92;61.90
45991;BME280;31721;41.740;-88.000;2022-12-07T09:31:14;99416.92;;;3.96;61.61
45991;BME280;31721;41.740;-88.000;2022-12-07T09:33:42;99412.83;;;4.02;61.59
45991;BME280;31721;41.740;-88.000;2022-12-07T09:36:09;99412.12;;;4.02;61.60
45991;BME280;31721;41.740;-88.000;2022-12-07T09:38:37;99411.93;;;3.41;62.27
45991;BME280;31721;41.740;-88.000;2022-12-07T09:41:06;99418.48;;;3.64;61.74
45991;BME280;31721;41.740;-88.000;2022-12-07T09:43:36;99423.36;;;3.53;61.41
45991;BME280;31721;41.740;-88.000;2022-12-07T09:46:08;99422.86;;;3.71;62.00
45991;BME280;31721;41.740;-88.000;2022-12-07T09:48:38;99418.39;;;3.62;61.89
45991;BME280;31721;41.740;-88.000;2022-12-07T09:51:14;99412.57;;;3.49;62.47
45991;BME280;31721;41.740;-88.000;2022-12-07T09:53:44;99412.44;;;3.48;62.22
45991;BME280;31721;41.740;-88.000;2022-12-07T09:56:13;99415.97;;;3.65;62.48
45991;BME280;31721;41.740;-88.000;2022-12-07T09:58:43;99417.70;;;3.70;62.42
45991;BME280;31721;41.740;-88.000;2022-12-07T10:01:13;99419.05;;;3.75;62.47
45991;BME280;31721;41.740;-88.000;2022-12-07T10:03:47;99423.55;;;3.71;62.34
45991;BME280;31721;41.740;-88.000;2022-12-07T10:06:16;99427.98;;;3.53;62.49
45991;BME280;31721;41.740;-88.000;2022-12-07T10:08:44;99432.99;;;3.72;62.38
45991;BME280;31721;41.740;-88.000;2022-12-07T10:11:12;99432.65;;;3.52;62.11
45991;BME280;31721;41.740;-88.000;2022-12-07T10:13:42;99433.12;;;3.73;62.33
45991;BME280;31721;41.740;-88.000;2022-12-07T10:16:32;99436.70;;;3.78;62.37
45991;BME280;31721;41.740;-88.000;2022-12-07T10:19:18;99446.48;;;3.82;62.31
45991;BME280;31721;41.740;-88.000;2022-12-07T10:22:01;99454.46;;;3.82;61.97
45991;BME280;31721;41.740;-88.000;2022-12-07T10:24:30;99452.15;;;3.84;61.98
45991;BME280;31721;41.740;-88.000;2022-12-07T10:26:58;99455.88;;;3.72;62.12
45991;BME280;31721;41.740;-88.000;2022-12-07T10:29:29;99459.50;;;3.80;62.06
45991;BME280;31721;41.740;-88.000;2022-12-07T10:31:59;99460.81;;;3.87;61.96
45991;BME280;31721;41.740;-88.000;2022-12-07T10:34:28;99466.42;;;3.92;62.16
45991;BME280;31721;41.740;-88.000;2022-12-07T10:37:15;99471.88;;;4.21;61.98
45991;BME280;31721;41.740;-88.000;2022-12-07T10:39:45;99480.27;;;4.17;61.73
45991;BME280;31721;41.740;-88.000;2022-12-07T10:42:19;99479.96;;;4.11;61.60
45991;BME280;31721;41.740;-88.000;2022-12-07T10:44:48;99477.68;;;4.15;61.61
45991;BME280;31721;41.740;-88.000;2022-12-07T10:47:25;99480.54;;;4.19;61.49
45991;BME280;31721;41.740;-88.000;2022-12-07T10:50:14;99484.75;;;4.14;61.50
45991;BME280;31721;41.740;-88.000;2022-12-07T10:52:55;99497.15;;;4.03;61.59
45991;BME280;31721;41.740;-88.000;2022-12-07T10:55:29;99503.82;;;4.12;61.69
45991;BME280;31721;41.740;-88.000;2022-12-07T10:58:15;99504.23;;;4.18;61.68
45991;BME280;31721;41.740;-88.000;2022-12-07T11:00:56;99505.92;;;4.25;61.68
45991;BME280;31721;41.740;-88.000;2022-12-07T11:03:41;99510.64;;;4.33;61.41
45991;BME280;31721;41.740;-88.000;2022-12-07T11:06:20;99514.90;;;4.29;61.27
45991;BME280;31721;41.740;-88.000;2022-12-07T11:09:03;99515.20;;;4.15;61.31
45991;BME280;31721;41.740;-88.000;2022-12-07T11:11:36;99516.27;;;4.20;61.36
45991;BME280;31721;41.740;-88.000;2022-12-07T11:14:16;99520.01;;;4.20;61.44
45991;BME280;31721;41.740;-88.000;2022-12-07T11:16:56;99519.69;;;4.20;61.47
45991;BME280;31721;41.740;-88.000;2022-12-07T11:19:34;99522.24;;;4.26;61.64
45991;BME280;31721;41.740;-88.000;2022-12-07T11:22:14;99526.81;;;4.08;61.57
45991;BME280;31721;41.740;-88.000;2022-12-07T11:24:49;99526.97;;;4.10;61.65
45991;BME280;31721;41.740;-88.000;2022-12-07T11:27:28;99524.64;;;4.28;61.60
45991;BME280;31721;41.740;-88.000;2022-12-07T11:30:12;99519.29;;;4.28;61.47
45991;BME280;31721;41.740;-88.000;2022-12-07T11:32:56;99520.61;;;4.33;61.46
45991;BME280;31721;41.740;-88.000;2022-12-07T11:35:36;99515.34;;;4.26;61.61
45991;BME280;31721;41.740;-88.000;2022-12-07T11:38:12;99510.39;;;4.36;61.50
45991;BME280;31721;41.740;-88.000;2022-12-07T11:40:44;99513.80;;;4.38;61.47
45991;BME280;31721;41.740;-88.000;2022-12-07T11:43:20;99523.78;;;4.24;61.35
45991;BME280;31721;41.740;-88.000;2022-12-07T11:45:54;99535.31;;;4.41;61.36
45991;BME280;31721;41.740;-88.000;2022-12-07T11:48:31;99544.69;;;4.29;61.54
45991;BME280;31721;41.740;-88.000;2022-12-07T11:51:02;99559.42;;;4.39;61.68
45991;BME280;31721;41.740;-88.000;2022-12-07T11:53:33;99566.14;;;4.26;61.50
45991;BME280;31721;41.740;-88.000;2022-12-07T11:56:08;99566.62;;;4.35;61.49
45991;BME280;31721;41.740;-88.000;2022-12-07T11:58:46;99567.97;;;4.45;61.44
45991;BME280;31721;41.740;-88.000;2022-12-07T12:01:25;99568.70;;;4.39;61.45
45991;BME280;31721;41.740;-88.000;2022-12-07T12:04:00;99561.57;;;4.75;60.92
45991;BME280;31721;41.740;-88.000;2022-12-07T12:06:30;99564.75;;;4.84;60.86
45991;BME280;31721;41.740;-88.000;2022-12-07T12:09:02;99565.70;;;4.67;60.73
45991;BME280;31721;41.740;-88.000;2022-12-07T12:11:46;99562.04;;;4.58;60.49
45991;BME280;31721;41.740;-88.000;2022-12-07T12:14:30;99559.25;;;4.60;60.53
45991;BME280;31721;41.740;-88.000;2022-12-07T12:17:18;99554.50;;;4.47;60.68
45991;BME280;31721;41.740;-88.000;2022-12-07T12:20:00;99548.78;;;4.56;60.65
45991;BME280;31721;41.740;-88.000;2022-12-07T12:22:34;99552.36;;;4.51;60.68
45991;BME280;31721;41.740;-88.000;2022-12-07T12:25:06;99569.43;;;4.30;60.93
45991;BME280;31721;41.740;-88.000;2022-12-07T12:27:36;99579.09;;;4.33;61.08
45991;BME280;31721;41.740;-88.000;2022-12-07T12:30:23;99583.70;;;4.39;61.02
45991;BME280;31721;41.740;-88.000;2022-12-07T12:32:52;99586.81;;;4.30;61.16
45991;BME280;31721;41.740;-88.000;2022-12-07T12:35:28;99586.86;;;4.31;61.15
45991;BME280;31721;41.740;-88.000;2022-12-07T12:38:25;99590.04;;;4.24;61.27
45991;BME280;31721;41.740;-88.000;2022-12-07T12:40:54;99600.09;;;4.14;61.27
45991;BME280;31721;41.740;-88.000;2022-12-07T12:43:55;99611.22;;;4.07;61.22
45991;BME280;31721;41.740;-88.000;2022-12-07T12:46:57;99615.93;;;4.05;61.57
45991;BME280;31721;41.740;-88.000;2022-12-07T12:49:38;99620.78;;;3.98;61.77
45991;BME280;31721;41.740;-88.000;2022-12-07T12:57:01;99617.18;;;3.86;61.86
45991;BME280;31721;41.740;-88.000;2022-12-07T12:59:33;99619.39;;;4.14;61.95
45991;BME280;31721;41.740;-88.000;2022-12-07T13:02:21;99616.05;;;4.11;61.82
45991;BME280;31721;41.740;-88.000;2022-12-07T13:04:53;99620.83;;;4.09;61.86
45991;BME280;31721;41.740;-88.000;2022-12-07T13:07:58;99623.94;;;4.23;62.08
45991;BME280;31721;41.740;-88.000;2022-12-07T13:10:35;99626.29;;;4.13;61.70
45991;BME280;31721;41.740;-88.000;2022-12-07T13:13:08;99630.48;;;4.20;61.57
45991;BME280;31721;41.740;-88.000;2022-12-07T13:16:37;99635.62;;;4.24;61.72
45991;BME280;31721;41.740;-88.000;2022-12-07T13:19:53;99637.97;;;4.26;61.77